createdAt,value
2018-06-27T00:01:26.975Z,17.99
2018-06-27T00:03:55.250Z,17.77
2018-06-27T00:06:23.452Z,17.71
2018-06-27T00:08:51.684Z,17.96
2018-06-27T00:11:19.895Z,17.95
2018-06-27T00:13:48.125Z,18.06
2018-06-27T00:16:16.425Z,18.05
2018-06-27T00:18:44.677Z,17.60
2018-06-27T00:21:12.981Z,17.73
2018-06-27T00:23:41.238Z,17.76
2018-06-27T00:26:09.452Z,17.97
2018-06-27T00:28:37.666Z,17.90
2018-06-27T00:31:05.899Z,17.62
2018-06-27T00:33:34.157Z,17.79
2018-06-27T00:36:02.301Z,17.63
2018-06-27T00:38:30.588Z,17.84
2018-06-27T00:40:58.846Z,17.48
2018-06-27T00:43:27.135Z,17.40
2018-06-27T00:45:55.372Z,17.55
2018-06-27T00:48:23.817Z,17.52
2018-06-27T00:50:51.977Z,17.69
2018-06-27T00:53:23.058Z,17.44
2018-06-27T00:55:51.314Z,17.40
2018-06-27T00:58:19.558Z,17.48
2018-06-27T01:00:47.804Z,17.41
2018-06-27T01:03:15.993Z,16.88
2018-06-27T01:05:44.161Z,17.30
2018-06-27T01:08:12.342Z,17.39
2018-06-27T01:10:40.625Z,17.31
2018-06-27T01:13:08.792Z,17.21
2018-06-27T01:15:36.965Z,17.11
2018-06-27T01:18:05.184Z,17.11
2018-06-27T01:20:33.421Z,17.42
2018-06-27T01:23:03.398Z,17.37
2018-06-27T01:25:31.587Z,17.13
2018-06-27T01:27:59.782Z,17.12
2018-06-27T01:30:27.954Z,16.73
2018-06-27T01:32:56.136Z,17.14
2018-06-27T01:35:24.339Z,16.76
2018-06-27T01:37:52.499Z,16.36
2018-06-27T01:40:20.710Z,16.74
2018-06-27T01:42:48.930Z,16.73
2018-06-27T01:45:17.216Z,16.82
2018-06-27T01:47:45.424Z,16.82
2018-06-27T01:50:13.701Z,16.94
2018-06-27T01:52:41.875Z,17.09
2018-06-27T01:55:10.030Z,17.05
2018-06-27T01:57:38.511Z,17.07
2018-06-27T02:00:07.343Z,16.71
2018-06-27T02:02:35.504Z,17.00
2018-06-27T02:05:03.712Z,17.09
2018-06-27T02:07:31.966Z,16.87
2018-06-27T02:10:00.118Z,16.92
2018-06-27T02:12:28.304Z,16.80
2018-06-27T02:14:56.469Z,16.83
2018-06-27T02:17:24.873Z,16.64
2018-06-27T02:19:53.105Z,16.78
2018-06-27T02:22:21.317Z,16.81
2018-06-27T02:24:49.484Z,16.79
2018-06-27T02:27:17.644Z,16.37
2018-06-27T02:29:45.837Z,16.37
2018-06-27T02:32:13.992Z,16.75
2018-06-27T02:34:42.213Z,16.48
2018-06-27T02:37:10.382Z,16.27
2018-06-27T02:39:38.589Z,16.63
2018-06-27T02:42:06.766Z,16.71
2018-06-27T02:44:34.901Z,16.82
2018-06-27T02:47:03.691Z,16.45
2018-06-27T02:49:31.857Z,16.55
2018-06-27T02:52:00.011Z,16.42
2018-06-27T02:54:28.150Z,16.22
2018-06-27T02:56:56.343Z,16.18
2018-06-27T02:59:24.594Z,15.98
2018-06-27T03:01:52.906Z,16.31
2018-06-27T03:04:21.271Z,16.10
2018-06-27T03:06:49.524Z,16.37
2018-06-27T03:09:17.762Z,16.41
2018-06-27T03:11:45.938Z,16.62
2018-06-27T03:14:14.129Z,16.62
2018-06-27T03:16:42.301Z,16.29
2018-06-27T03:19:10.615Z,16.36
2018-06-27T03:21:38.812Z,15.83
2018-06-27T03:24:07.127Z,15.95
2018-06-27T03:26:35.359Z,16.18
2018-06-27T03:29:03.631Z,16.55
2018-06-27T03:31:31.849Z,16.15
2018-06-27T03:34:00.010Z,16.44
2018-06-27T03:36:28.208Z,16.21
2018-06-27T03:38:56.400Z,15.82
2018-06-27T03:41:24.756Z,16.19
2018-06-27T03:43:52.973Z,16.14
2018-06-27T03:46:21.324Z,16.14
2018-06-27T03:48:49.867Z,16.39
2018-06-27T03:51:18.061Z,16.39
2018-06-27T03:53:51.842Z,16.02
2018-06-27T03:56:20.071Z,16.47
2018-06-27T03:58:48.377Z,16.60
2018-06-27T04:01:16.613Z,16.52
2018-06-27T04:03:44.801Z,15.93
2018-06-27T04:06:13.108Z,16.27
2018-06-27T04:08:41.493Z,16.31
2018-06-27T04:11:09.737Z,16.11
2018-06-27T04:13:41.116Z,16.36
2018-06-27T04:16:09.589Z,16.47
2018-06-27T04:18:37.852Z,16.50
2018-06-27T04:21:06.064Z,16.38
2018-06-27T04:23:34.252Z,16.12
2018-06-27T04:26:02.504Z,16.44
2018-06-27T04:28:30.774Z,16.51
2018-06-27T04:30:59.813Z,16.08
2018-06-27T04:33:27.983Z,16.29
2018-06-27T04:35:56.243Z,15.95
2018-06-27T04:38:24.403Z,15.82
2018-06-27T04:40:53.225Z,15.98
2018-06-27T04:43:21.401Z,16.01
2018-06-27T04:45:49.608Z,16.05
2018-06-27T04:48:17.764Z,16.20
2018-06-27T04:50:45.942Z,16.10
2018-06-27T04:53:14.153Z,16.34
2018-06-27T04:55:42.360Z,16.59
2018-06-27T04:58:10.563Z,16.64
2018-06-27T05:00:38.736Z,16.67
2018-06-27T05:03:07.285Z,16.65
2018-06-27T05:05:35.462Z,16.33
2018-06-27T05:08:03.712Z,16.38
2018-06-27T05:10:31.914Z,16.11
2018-06-27T05:13:00.129Z,16.16
2018-06-27T05:15:28.352Z,16.13
2018-06-27T05:17:56.625Z,16.30
2018-06-27T05:20:24.957Z,16.14
2018-06-27T05:22:53.255Z,16.52
2018-06-27T05:25:21.548Z,16.27
2018-06-27T05:27:49.711Z,16.46
2018-06-27T05:30:17.925Z,16.51
2018-06-27T05:32:46.564Z,16.61
2018-06-27T05:35:14.857Z,16.46
2018-06-27T05:37:43.139Z,16.65
2018-06-27T05:40:11.380Z,16.55
2018-06-27T05:42:39.681Z,16.72
2018-06-27T05:45:08.036Z,16.91
2018-06-27T05:47:36.227Z,16.50
2018-06-27T05:50:04.556Z,16.87
2018-06-27T05:52:32.776Z,16.87
2018-06-27T05:55:06.259Z,16.76
2018-06-27T05:57:34.517Z,16.98
2018-06-27T06:00:03.191Z,16.90
2018-06-27T06:02:31.514Z,17.00
2018-06-27T06:04:59.798Z,17.14
2018-06-27T06:07:27.951Z,17.39
2018-06-27T06:09:56.206Z,17.22
2018-06-27T06:12:24.429Z,17.19
2018-06-27T06:14:52.915Z,17.44
2018-06-27T06:17:21.162Z,17.36
2018-06-27T06:19:49.403Z,17.47
2018-06-27T06:22:17.572Z,17.52
2018-06-27T06:24:46.489Z,17.52
2018-06-27T06:27:15.581Z,17.52
2018-06-27T06:29:45.140Z,17.57
2018-06-27T06:32:13.955Z,17.60
2018-06-27T06:34:42.367Z,17.56
2018-06-27T06:37:11.263Z,17.68
2018-06-27T06:39:39.431Z,17.70
2018-06-27T06:42:07.617Z,17.67
2018-06-27T06:44:35.759Z,17.68
2018-06-27T06:47:04.137Z,17.70
2018-06-27T06:49:32.281Z,17.81
2018-06-27T06:52:00.468Z,17.89
2018-06-27T06:54:28.879Z,17.91
2018-06-27T06:56:57.073Z,17.99
2018-06-27T06:59:25.259Z,18.03
2018-06-27T07:01:53.532Z,18.01
2018-06-27T07:04:21.679Z,17.89
2018-06-27T07:06:49.860Z,18.01
2018-06-27T07:09:18.072Z,18.05
2018-06-27T07:11:46.228Z,18.15
2018-06-27T07:14:14.505Z,18.13
2018-06-27T07:16:42.720Z,18.24
2018-06-27T07:19:11.142Z,18.37
2018-06-27T07:21:39.414Z,18.44
2018-06-27T07:24:07.685Z,18.41
2018-06-27T07:26:35.886Z,18.46
2018-06-27T07:29:04.040Z,18.63
2018-06-27T07:31:32.221Z,18.70
2018-06-27T07:34:00.482Z,18.70
2018-06-27T07:36:28.717Z,18.69
2018-06-27T07:38:56.878Z,18.77
2018-06-27T07:41:25.249Z,18.78
2018-06-27T07:43:53.468Z,18.76
2018-06-27T07:46:21.748Z,18.86
2018-06-27T07:48:49.995Z,18.93
2018-06-27T07:51:18.187Z,18.94
2018-06-27T07:53:46.398Z,18.94
2018-06-27T07:56:14.665Z,19.02
2018-06-27T07:58:42.910Z,18.99
2018-06-27T08:01:11.963Z,19.01
2018-06-27T08:03:40.106Z,19.08
2018-06-27T08:06:08.320Z,19.21
2018-06-27T08:08:36.495Z,19.27
2018-06-27T08:11:05.347Z,19.41
2018-06-27T08:13:33.602Z,19.59
2018-06-27T08:16:01.821Z,19.69
2018-06-27T08:18:40.977Z,19.55
2018-06-27T08:21:10.246Z,19.56
2018-06-27T08:23:38.506Z,19.65
2018-06-27T08:26:06.835Z,19.98
2018-06-27T08:28:35.047Z,19.83
2018-06-27T08:31:03.402Z,19.97
2018-06-27T08:33:31.622Z,19.99
2018-06-27T08:35:59.835Z,19.99
2018-06-27T08:38:28.042Z,20.24
2018-06-27T08:40:56.302Z,20.15
2018-06-27T08:43:24.480Z,20.18
2018-06-27T08:45:52.648Z,20.15
2018-06-27T08:48:20.852Z,20.64
2018-06-27T08:50:49.029Z,20.39
2018-06-27T08:53:17.264Z,20.71
2018-06-27T08:55:45.509Z,20.47
2018-06-27T08:58:14.488Z,20.54
2018-06-27T09:00:42.771Z,20.64
2018-06-27T09:03:11.112Z,21.04
2018-06-27T09:05:39.355Z,20.81
2018-06-27T09:08:08.632Z,20.86
2018-06-27T09:10:36.813Z,21.11
2018-06-27T09:13:05.075Z,21.18
2018-06-27T09:15:33.436Z,20.97
2018-06-27T09:18:01.608Z,20.80
2018-06-27T09:20:30.020Z,21.11
2018-06-27T09:22:58.225Z,21.37
2018-06-27T09:25:26.425Z,21.05
2018-06-27T09:27:54.609Z,21.26
2018-06-27T09:30:22.795Z,21.51
2018-06-27T09:32:51.665Z,21.44
2018-06-27T09:35:20.117Z,21.35
2018-06-27T09:37:48.442Z,21.56
2018-06-27T09:40:16.655Z,21.54
2018-06-27T09:42:44.901Z,21.47
2018-06-27T09:45:13.351Z,21.54
2018-06-27T09:47:41.601Z,21.93
2018-06-27T09:50:09.778Z,21.77
2018-06-27T09:52:38.087Z,21.76
2018-06-27T09:55:06.325Z,21.65
2018-06-27T09:57:34.613Z,21.56
2018-06-27T10:00:02.813Z,21.82
2018-06-27T10:02:31.059Z,21.91
2018-06-27T10:04:59.265Z,21.96
2018-06-27T10:07:27.580Z,22.06
2018-06-27T10:09:55.828Z,22.15
2018-06-27T10:12:24.046Z,22.22
2018-06-27T10:14:52.237Z,22.28
2018-06-27T10:17:20.504Z,22.28
2018-06-27T10:19:48.740Z,22.35
2018-06-27T10:22:17.772Z,22.20
2018-06-27T10:24:46.006Z,22.46
2018-06-27T10:27:14.313Z,22.42
2018-06-27T10:29:42.481Z,22.36
2018-06-27T10:32:10.754Z,22.35
2018-06-27T10:34:39.035Z,22.21
2018-06-27T10:37:07.241Z,22.24
2018-06-27T10:39:35.501Z,22.43
2018-06-27T10:42:03.787Z,22.43
2018-06-27T10:44:32.032Z,22.89
2018-06-27T10:47:00.263Z,22.56
2018-06-27T10:49:28.486Z,22.41
2018-06-27T10:51:56.825Z,22.49
2018-06-27T10:54:25.567Z,22.75
2018-06-27T10:56:53.740Z,22.65
2018-06-27T10:59:21.927Z,22.81
2018-06-27T11:01:50.110Z,22.82
2018-06-27T11:04:18.252Z,22.70
2018-06-27T11:06:46.460Z,22.70
2018-06-27T11:09:14.626Z,22.90
2018-06-27T11:11:42.848Z,22.85
2018-06-27T11:14:11.064Z,22.86
2018-06-27T11:16:39.280Z,23.01
2018-06-27T11:19:07.569Z,22.87
2018-06-27T11:21:35.818Z,23.02
2018-06-27T11:24:04.016Z,22.99
2018-06-27T11:26:32.182Z,23.05
2018-06-27T11:29:00.485Z,23.05
2018-06-27T11:31:28.696Z,23.15
2018-06-27T11:33:57.055Z,23.31
2018-06-27T11:36:25.353Z,23.10
2018-06-27T11:38:53.628Z,23.49
2018-06-27T11:41:21.786Z,23.31
2018-06-27T11:43:49.996Z,23.35
2018-06-27T11:46:18.169Z,23.22
2018-06-27T11:48:46.396Z,23.38
2018-06-27T11:51:14.725Z,23.38
2018-06-27T11:53:42.900Z,23.43
2018-06-27T11:56:11.260Z,23.40
2018-06-27T11:58:39.521Z,23.49
2018-06-27T12:01:07.842Z,23.45
2018-06-27T12:03:36.014Z,23.56
2018-06-27T12:06:04.160Z,23.87
2018-06-27T12:08:32.432Z,23.78
2018-06-27T12:11:00.682Z,23.64
2018-06-27T12:13:28.906Z,23.68
2018-06-27T12:15:57.170Z,23.67
2018-06-27T12:18:25.434Z,23.74
2018-06-27T12:20:53.699Z,23.86
2018-06-27T12:23:21.979Z,24.08
2018-06-27T12:25:50.107Z,23.94
2018-06-27T12:28:18.384Z,24.08
2018-06-27T12:30:46.673Z,23.90
2018-06-27T12:33:14.908Z,23.76
2018-06-27T12:35:43.060Z,23.74
2018-06-27T12:38:11.340Z,24.01
2018-06-27T12:40:39.647Z,24.05
2018-06-27T12:43:07.933Z,24.06
2018-06-27T12:45:36.106Z,24.30
2018-06-27T12:48:04.411Z,24.23
2018-06-27T12:50:32.644Z,24.27
2018-06-27T12:53:00.829Z,24.33
2018-06-27T12:55:29.128Z,24.24
2018-06-27T12:57:57.340Z,24.49
2018-06-27T13:00:25.634Z,24.24
2018-06-27T13:02:53.905Z,24.43
2018-06-27T13:05:22.096Z,24.45
2018-06-27T13:07:50.315Z,24.21
2018-06-27T13:10:18.576Z,24.00
2018-06-27T13:12:46.801Z,23.76
2018-06-27T13:15:14.986Z,24.05
2018-06-27T13:17:43.131Z,24.44
2018-06-27T13:20:11.315Z,24.19
2018-06-27T13:22:39.482Z,24.52
2018-06-27T13:25:07.655Z,24.52
2018-06-27T13:27:35.851Z,24.45
2018-06-27T13:30:04.661Z,24.58
2018-06-27T13:32:32.848Z,24.58
2018-06-27T13:35:01.211Z,24.71
2018-06-27T13:37:29.417Z,24.72
2018-06-27T13:39:57.652Z,24.68
2018-06-27T13:42:25.966Z,24.40
2018-06-27T13:44:54.128Z,24.66
2018-06-27T13:47:22.356Z,24.76
2018-06-27T13:49:50.595Z,24.81
2018-06-27T13:52:18.873Z,25.08
2018-06-27T13:54:52.453Z,24.86
2018-06-27T13:57:20.744Z,24.81
2018-06-27T13:59:49.025Z,24.55
2018-06-27T14:02:17.238Z,24.28
2018-06-27T14:04:45.506Z,24.72
2018-06-27T14:07:13.704Z,24.79
2018-06-27T14:09:41.932Z,24.86
2018-06-27T14:12:10.093Z,25.09
2018-06-27T14:14:38.265Z,24.93
2018-06-27T14:17:06.499Z,24.47
2018-06-27T14:19:34.836Z,24.98
2018-06-27T14:22:03.152Z,25.11
2018-06-27T14:24:31.430Z,25.21
2018-06-27T14:26:59.634Z,25.33
2018-06-27T14:29:27.809Z,25.37
2018-06-27T14:31:56.043Z,25.17
2018-06-27T14:34:24.220Z,25.73
2018-06-27T14:36:52.406Z,25.16
2018-06-27T14:39:20.621Z,25.45
2018-06-27T14:41:48.772Z,25.47
2018-06-27T14:44:16.945Z,25.15
2018-06-27T14:46:45.246Z,25.17
2018-06-27T14:49:13.604Z,24.96
2018-06-27T14:51:41.759Z,24.81
2018-06-27T14:54:10.058Z,24.76
2018-06-27T14:56:38.233Z,25.02
2018-06-27T14:59:06.455Z,25.21
2018-06-27T15:01:34.644Z,25.36
2018-06-27T15:04:02.913Z,25.48
2018-06-27T15:06:31.166Z,25.47
2018-06-27T15:08:59.374Z,25.44
2018-06-27T15:11:27.681Z,25.43
2018-06-27T15:13:55.953Z,25.71
2018-06-27T15:16:24.261Z,25.74
2018-06-27T15:18:52.394Z,25.95
2018-06-27T15:21:20.655Z,26.08
2018-06-27T15:23:48.838Z,25.91
2018-06-27T15:26:17.085Z,25.84
2018-06-27T15:28:45.363Z,25.81
2018-06-27T15:31:13.660Z,26.05
2018-06-27T15:33:41.939Z,25.86
2018-06-27T15:36:10.146Z,25.95
2018-06-27T15:38:38.358Z,25.74
2018-06-27T15:41:07.806Z,25.18
2018-06-27T15:43:36.060Z,24.94
2018-06-27T15:46:04.267Z,25.20
2018-06-27T15:48:32.463Z,25.65
2018-06-27T15:51:00.712Z,25.58
2018-06-27T15:53:28.908Z,26.00
2018-06-27T15:55:57.069Z,26.05
2018-06-27T15:58:25.492Z,25.91
2018-06-27T16:00:53.779Z,25.89
2018-06-27T16:03:21.985Z,25.54
2018-06-27T16:05:50.210Z,24.95
2018-06-27T16:08:18.428Z,24.94
2018-06-27T16:10:46.720Z,25.01
2018-06-27T16:13:14.886Z,25.12
2018-06-27T16:15:43.749Z,25.48
2018-06-27T16:18:11.904Z,25.61
2018-06-27T16:20:40.105Z,25.97
2018-06-27T16:23:08.301Z,25.87
2018-06-27T16:25:36.531Z,25.79
2018-06-27T16:28:05.451Z,25.88
2018-06-27T16:30:33.654Z,26.35
2018-06-27T16:33:01.885Z,26.28
2018-06-27T16:35:30.162Z,26.07
2018-06-27T16:37:58.347Z,26.31
2018-06-27T16:40:26.566Z,26.11
2018-06-27T16:42:54.750Z,26.11
2018-06-27T16:45:23.022Z,26.12
2018-06-27T16:47:51.321Z,26.13
2018-06-27T16:50:19.582Z,26.11
2018-06-27T16:52:47.877Z,26.29
2018-06-27T16:55:16.086Z,26.25
2018-06-27T16:57:44.272Z,26.38
2018-06-27T17:00:12.489Z,26.31
2018-06-27T17:02:40.685Z,26.20
2018-06-27T17:05:09.089Z,26.52
2018-06-27T17:07:37.366Z,26.53
2018-06-27T17:10:05.753Z,26.43
2018-06-27T17:12:33.923Z,26.40
2018-06-27T17:15:02.244Z,26.60
2018-06-27T17:17:30.441Z,26.65
2018-06-27T17:19:58.680Z,26.38
2018-06-27T17:22:26.904Z,26.24
2018-06-27T17:24:55.134Z,26.22
2018-06-27T17:27:23.305Z,26.06
2018-06-27T17:29:51.585Z,26.32
2018-06-27T17:32:19.826Z,26.12
2018-06-27T17:34:48.007Z,25.68
2018-06-27T17:37:16.225Z,25.71
2018-06-27T17:39:44.401Z,25.61
2018-06-27T17:42:12.600Z,25.32
2018-06-27T17:44:40.855Z,25.74
2018-06-27T17:47:09.061Z,25.89
2018-06-27T17:49:37.391Z,25.87
2018-06-27T17:52:05.784Z,25.85
2018-06-27T17:54:33.970Z,25.89
2018-06-27T17:57:02.178Z,25.72
2018-06-27T17:59:30.385Z,25.97
2018-06-27T18:01:58.599Z,25.75
2018-06-27T18:04:26.838Z,25.60
2018-06-27T18:06:55.013Z,25.85
2018-06-27T18:09:23.227Z,25.89
2018-06-27T18:11:51.460Z,25.98
2018-06-27T18:14:19.769Z,25.64
2018-06-27T18:16:48.041Z,25.89
2018-06-27T18:19:16.228Z,25.85
2018-06-27T18:21:44.493Z,25.52
2018-06-27T18:24:12.717Z,25.34
2018-06-27T18:26:41.011Z,25.57
2018-06-27T18:29:09.405Z,25.56
2018-06-27T18:31:37.693Z,25.02
2018-06-27T18:34:05.956Z,25.16
2018-06-27T18:36:34.202Z,24.98
2018-06-27T18:39:02.411Z,25.06
2018-06-27T18:41:30.629Z,24.82
2018-06-27T18:43:58.818Z,24.67
2018-06-27T18:46:27.076Z,24.84
2018-06-27T18:48:55.387Z,24.95
2018-06-27T18:51:23.711Z,24.69
2018-06-27T18:53:51.990Z,24.67
2018-06-27T18:56:20.209Z,24.63
2018-06-27T18:58:48.400Z,24.47
2018-06-27T19:01:16.621Z,24.40
2018-06-27T19:03:44.869Z,24.50
2018-06-27T19:06:13.116Z,24.60
2018-06-27T19:08:41.469Z,24.43
2018-06-27T19:11:09.662Z,24.37
2018-06-27T19:13:37.878Z,24.44
2018-06-27T19:16:06.182Z,24.31
2018-06-27T19:18:34.371Z,24.24
2018-06-27T19:21:02.575Z,24.49
2018-06-27T19:23:30.774Z,24.42
2018-06-27T19:25:58.974Z,24.23
2018-06-27T19:28:27.243Z,24.26
2018-06-27T19:30:55.429Z,24.27
2018-06-27T19:33:23.724Z,24.13
2018-06-27T19:35:51.928Z,24.13
2018-06-27T19:38:20.224Z,24.05
2018-06-27T19:40:48.419Z,23.66
2018-06-27T19:43:16.665Z,24.03
2018-06-27T19:45:44.957Z,23.70
2018-06-27T19:48:13.171Z,23.73
2018-06-27T19:50:41.379Z,23.75
2018-06-27T19:53:09.662Z,23.63
2018-06-27T19:55:37.943Z,23.78
2018-06-27T19:58:06.151Z,23.82
2018-06-27T20:00:34.387Z,23.61
2018-06-27T20:03:02.579Z,23.58
2018-06-27T20:05:30.899Z,23.55
2018-06-27T20:07:59.403Z,23.53
2018-06-27T20:10:27.549Z,23.57
2018-06-27T20:12:55.786Z,23.27
2018-06-27T20:15:24.062Z,23.15
2018-06-27T20:17:52.243Z,23.14
2018-06-27T20:20:20.420Z,23.04
2018-06-27T20:22:48.573Z,23.22
2018-06-27T20:25:16.861Z,23.30
2018-06-27T20:27:45.047Z,23.16
2018-06-27T20:30:13.420Z,22.90
2018-06-27T20:32:41.691Z,22.79
2018-06-27T20:35:10.017Z,22.89
2018-06-27T20:37:38.211Z,22.73
2018-06-27T20:40:06.637Z,22.63
2018-06-27T20:42:34.862Z,22.94
2018-06-27T20:45:03.018Z,22.70
2018-06-27T20:47:31.273Z,22.66
2018-06-27T20:49:59.559Z,22.95
2018-06-27T20:52:27.755Z,22.98
2018-06-27T20:54:56.044Z,22.89
2018-06-27T20:57:24.458Z,22.73
2018-06-27T20:59:52.672Z,22.91
2018-06-27T21:02:20.850Z,22.76
2018-06-27T21:04:49.133Z,22.86
2018-06-27T21:07:17.326Z,22.71
2018-06-27T21:09:45.513Z,22.75
2018-06-27T21:12:13.701Z,22.74
2018-06-27T21:14:43.367Z,22.20
2018-06-27T21:17:11.645Z,22.49
2018-06-27T21:19:39.794Z,22.27
2018-06-27T21:22:08.050Z,22.15
2018-06-27T21:24:36.269Z,21.85
2018-06-27T21:27:04.637Z,21.70
2018-06-27T21:29:32.917Z,21.99
2018-06-27T21:32:01.145Z,21.94
2018-06-27T21:34:29.392Z,22.03
2018-06-27T21:36:58.088Z,21.36
2018-06-27T21:39:26.314Z,21.46
2018-06-27T21:41:54.597Z,21.54
2018-06-27T21:44:23.016Z,21.51
2018-06-27T21:46:51.362Z,21.36
2018-06-27T21:49:19.593Z,21.53
2018-06-27T21:51:47.811Z,21.44
2018-06-27T21:54:16.044Z,21.49
2018-06-27T21:56:44.406Z,21.42
2018-06-27T21:59:12.950Z,21.24
2018-06-27T22:01:42.639Z,20.93
2018-06-27T22:04:10.848Z,21.24
2018-06-27T22:06:39.382Z,21.13
2018-06-27T22:09:08.725Z,21.14
2018-06-27T22:11:37.040Z,21.05
2018-06-27T22:14:05.253Z,20.97
2018-06-27T22:16:33.454Z,21.05
2018-06-27T22:19:01.654Z,21.04
2018-06-27T22:21:29.895Z,20.80
2018-06-27T22:23:58.098Z,20.86
2018-06-27T22:26:26.401Z,20.72
2018-06-27T22:28:54.658Z,20.59
2018-06-27T22:31:22.870Z,20.58
2018-06-27T22:33:51.208Z,20.53
2018-06-27T22:36:19.464Z,20.47
2018-06-27T22:38:47.687Z,20.64
2018-06-27T22:41:15.882Z,20.54
2018-06-27T22:43:44.121Z,20.50
2018-06-27T22:46:12.343Z,20.40
2018-06-27T22:48:40.565Z,20.52
2018-06-27T22:51:08.835Z,20.62
2018-06-27T22:53:37.159Z,20.42
2018-06-27T22:56:05.857Z,20.22
2018-06-27T22:58:34.165Z,20.11
2018-06-27T23:01:02.401Z,20.26
2018-06-27T23:03:30.604Z,20.54
2018-06-27T23:05:58.870Z,20.23
2018-06-27T23:08:27.104Z,20.44
2018-06-27T23:10:55.325Z,20.19
2018-06-27T23:13:23.657Z,20.11
2018-06-27T23:15:51.969Z,19.97
2018-06-27T23:18:20.224Z,20.07
2018-06-27T23:20:48.399Z,20.05
2018-06-27T23:23:16.612Z,19.83
2018-06-27T23:25:44.782Z,19.72
2018-06-27T23:28:28.848Z,20.11
2018-06-27T23:30:57.027Z,19.96
2018-06-27T23:33:25.230Z,19.78
2018-06-27T23:35:53.455Z,20.01
2018-06-27T23:38:21.839Z,20.03
2018-06-27T23:40:50.038Z,19.77
2018-06-27T23:43:18.233Z,19.77
2018-06-27T23:45:46.472Z,19.98
2018-06-27T23:49:52.574Z,19.95
2018-06-27T23:52:21.457Z,19.74
2018-06-27T23:54:49.773Z,19.66
2018-06-27T23:57:17.959Z,19.40
2018-06-27T23:59:46.268Z,19.72
